Terminal Aerodrome Forecast
Issued by NWS

Home | Current Version | Previous Version | Text Only | Print | Product List | Glossary Off
Versions: 1 2 3 4 5 6 7 8 9 10 11 12 13 14 15 16 17 18 19 20 21

000
FTUS43 KICT 171145
TAFHUT
TAF
KHUT 171145Z 1712/1812 09007KT P6SM OVC070
     FM171400 13009KT P6SM SCT015 OVC050
     FM172300 12007KT P6SM OVC013
     FM180200 12007KT 4SM -SN OVC007=

USA.gov is the U.S. government's official web portal to all federal, state and local government web resources and services.